sensor_id;sensor_type;location;lat;lon;timestamp;temperature;humidity
41557;DHT22;27720;51.992;5.890;2023-02-15T15:52:20;9.90;99.90
41557;DHT22;27720;51.992;5.890;2023-02-15T15:55:36;10.20;99.90
41557;DHT22;27720;51.992;5.890;2023-02-15T15:57:51;10.50;99.90
41557;DHT22;27720;51.992;5.890;2023-02-15T16:00:48;10.90;99.90
41557;DHT22;27720;51.992;5.890;2023-02-15T16:03:23;11.20;99.90
41557;DHT22;27720;51.992;5.890;2023-02-15T16:05:49;11.40;99.90
41557;DHT22;27720;51.992;5.890;2023-02-15T16:08:32;11.60;99.90
41557;DHT22;27720;51.992;5.890;2023-02-15T16:11:08;11.70;99.90
41557;DHT22;27720;51.992;5.890;2023-02-15T16:13:34;11.80;99.90
41557;DHT22;27720;51.992;5.890;2023-02-15T16:16:00;11.90;99.90
41557;DHT22;27720;51.992;5.890;2023-02-15T16:18:27;12.00;99.90
41557;DHT22;27720;51.992;5.890;2023-02-15T16:20:57;12.00;99.90
41557;DHT22;27720;51.992;5.890;2023-02-15T16:28:52;12.10;99.90
41557;DHT22;27720;51.992;5.890;2023-02-15T16:31:19;12.10;99.90
41557;DHT22;27720;51.992;5.890;2023-02-15T16:33:53;12.00;99.90
41557;DHT22;27720;51.992;5.890;2023-02-15T16:36:24;12.00;99.90
41557;DHT22;27720;51.992;5.890;2023-02-15T16:41:26;12.00;99.90
41557;DHT22;27720;51.992;5.890;2023-02-15T16:43:54;12.00;99.90
41557;DHT22;27720;51.992;5.890;2023-02-15T16:46:37;11.90;99.90
41557;DHT22;27720;51.992;5.890;2023-02-15T16:49:22;11.90;99.90
41557;DHT22;27720;51.992;5.890;2023-02-15T16:52:05;11.80;99.90
41557;DHT22;27720;51.992;5.890;2023-02-15T16:54:33;11.80;99.90
41557;DHT22;27720;51.992;5.890;2023-02-15T16:56:59;11.80;99.90
41557;DHT22;27720;51.992;5.890;2023-02-15T16:59:39;11.70;99.90
41557;DHT22;27720;51.992;5.890;2023-02-15T17:02:15;11.80;99.90
41557;DHT22;27720;51.992;5.890;2023-02-15T17:04:42;11.70;99.90
41557;DHT22;27720;51.992;5.890;2023-02-15T17:07:26;11.70;99.90
41557;DHT22;27720;51.992;5.890;2023-02-15T17:09:54;11.70;99.90
41557;DHT22;27720;51.992;5.890;2023-02-15T17:12:45;11.60;99.90
41557;DHT22;27720;51.992;5.890;2023-02-15T17:15:36;11.60;99.90
41557;DHT22;27720;51.992;5.890;2023-02-15T17:20:44;11.50;99.90
41557;DHT22;27720;51.992;5.890;2023-02-15T17:23:31;11.40;99.90
41557;DHT22;27720;51.992;5.890;2023-02-15T17:25:58;11.40;99.90
41557;DHT22;27720;51.992;5.890;2023-02-15T17:28:28;11.30;99.90
41557;DHT22;27720;51.992;5.890;2023-02-15T17:30:56;11.30;99.90
41557;DHT22;27720;51.992;5.890;2023-02-15T17:36:21;11.20;99.90
41557;DHT22;27720;51.992;5.890;2023-02-15T17:43:49;11.10;99.90
41557;DHT22;27720;51.992;5.890;2023-02-15T17:46:15;11.00;99.90
41557;DHT22;27720;51.992;5.890;2023-02-15T17:48:46;11.00;99.90
41557;DHT22;27720;51.992;5.890;2023-02-15T17:51:13;11.00;99.90
41557;DHT22;27720;51.992;5.890;2023-02-15T17:53:40;10.90;99.90
41557;DHT22;27720;51.992;5.890;2023-02-15T17:56:29;10.90;99.90
41557;DHT22;27720;51.992;5.890;2023-02-15T17:58:55;10.80;99.90
41557;DHT22;27720;51.992;5.890;2023-02-15T18:01:21;10.80;99.90
41557;DHT22;27720;51.992;5.890;2023-02-15T18:04:10;10.80;99.90
41557;DHT22;27720;51.992;5.890;2023-02-15T18:06:54;10.70;99.90
41557;DHT22;27720;51.992;5.890;2023-02-15T18:09:39;10.70;99.90
41557;DHT22;27720;51.992;5.890;2023-02-15T18:14:50;10.60;99.90
41557;DHT22;27720;51.992;5.890;2023-02-15T18:17:16;10.60;99.90
41557;DHT22;27720;51.992;5.890;2023-02-15T18:19:44;10.50;99.90
41557;DHT22;27720;51.992;5.890;2023-02-15T18:22:12;10.50;99.90
41557;DHT22;27720;51.992;5.890;2023-02-15T18:24:38;10.40;99.90
41557;DHT22;27720;51.992;5.890;2023-02-15T18:27:04;10.50;99.90
41557;DHT22;27720;51.992;5.890;2023-02-15T18:29:31;10.40;99.90
41557;DHT22;27720;51.992;5.890;2023-02-15T18:31:58;10.40;99.90
41557;DHT22;27720;51.992;5.890;2023-02-15T18:36:55;10.30;99.90
41557;DHT22;27720;51.992;5.890;2023-02-15T18:39:54;10.30;99.90
41557;DHT22;27720;51.992;5.890;2023-02-15T18:42:28;10.30;99.90
41557;DHT22;27720;51.992;5.890;2023-02-15T18:44:58;10.30;99.90
41557;DHT22;27720;51.992;5.890;2023-02-15T18:47:26;10.20;99.90
41557;DHT22;27720;51.992;5.890;2023-02-15T18:49:52;10.20;99.90
41557;DHT22;27720;51.992;5.890;2023-02-15T18:52:23;10.20;99.90
41557;DHT22;27720;51.992;5.890;2023-02-15T18:54:53;10.20;99.90
41557;DHT22;27720;51.992;5.890;2023-02-15T18:57:19;10.10;99.90
41557;DHT22;27720;51.992;5.890;2023-02-15T18:59:45;10.10;99.90
41557;DHT22;27720;51.992;5.890;2023-02-15T19:02:16;10.10;99.90
41557;DHT22;27720;51.992;5.890;2023-02-15T19:04:43;10.00;99.90
41557;DHT22;27720;51.992;5.890;2023-02-15T19:07:24;10.00;99.90
41557;DHT22;27720;51.992;5.890;2023-02-15T19:09:55;10.00;99.90
41557;DHT22;27720;51.992;5.890;2023-02-15T19:12:21;9.90;99.90
41557;DHT22;27720;51.992;5.890;2023-02-15T19:14:47;9.90;99.90
41557;DHT22;27720;51.992;5.890;2023-02-15T19:17:15;9.90;99.90
41557;DHT22;27720;51.992;5.890;2023-02-15T19:19:41;9.80;99.90
41557;DHT22;27720;51.992;5.890;2023-02-15T19:22:27;9.80;99.90
41557;DHT22;27720;51.992;5.890;2023-02-15T19:24:57;9.80;99.90
41557;DHT22;27720;51.992;5.890;2023-02-15T19:27:29;9.70;99.90
41557;DHT22;27720;51.992;5.890;2023-02-15T19:29:58;9.80;99.90
41557;DHT22;27720;51.992;5.890;2023-02-15T19:32:24;9.70;99.90
41557;DHT22;27720;51.992;5.890;2023-02-15T19:34:51;9.70;99.90
41557;DHT22;27720;51.992;5.890;2023-02-15T19:39:59;9.70;99.90
41557;DHT22;27720;51.992;5.890;2023-02-15T19:42:27;9.60;99.90
41557;DHT22;27720;51.992;5.890;2023-02-15T19:44:53;9.60;99.90
41557;DHT22;27720;51.992;5.890;2023-02-15T19:47:19;9.60;99.90
41557;DHT22;27720;51.992;5.890;2023-02-15T19:49:46;9.60;99.90
41557;DHT22;27720;51.992;5.890;2023-02-15T19:52:18;9.60;99.90
41557;DHT22;27720;51.992;5.890;2023-02-15T19:54:45;9.60;99.90
41557;DHT22;27720;51.992;5.890;2023-02-15T19:57:11;9.50;99.90
41557;DHT22;27720;51.992;5.890;2023-02-15T19:59:38;9.50;99.90
41557;DHT22;27720;51.992;5.890;2023-02-15T20:02:04;9.50;99.90
41557;DHT22;27720;51.992;5.890;2023-02-15T20:04:30;9.50;99.90
41557;DHT22;27720;51.992;5.890;2023-02-15T20:06:59;9.40;99.90
41557;DHT22;27720;51.992;5.890;2023-02-15T20:09:31;9.50;99.90
41557;DHT22;27720;51.992;5.890;2023-02-15T20:11:58;9.40;99.90
41557;DHT22;27720;51.992;5.890;2023-02-15T20:14:24;9.40;99.90
41557;DHT22;27720;51.992;5.890;2023-02-15T20:16:50;9.40;99.90
41557;DHT22;27720;51.992;5.890;2023-02-15T20:19:16;9.40;99.90
41557;DHT22;27720;51.992;5.890;2023-02-15T20:21:43;9.40;99.90
41557;DHT22;27720;51.992;5.890;2023-02-15T20:24:15;9.30;99.90
41557;DHT22;27720;51.992;5.890;2023-02-15T20:26:42;9.30;99.90
41557;DHT22;27720;51.992;5.890;2023-02-15T20:29:13;9.30;99.90
41557;DHT22;27720;51.992;5.890;2023-02-15T20:31:40;9.30;99.90
41557;DHT22;27720;51.992;5.890;2023-02-15T20:34:06;9.20;99.90
41557;DHT22;27720;51.992;5.890;2023-02-15T20:36:32;9.20;99.90
41557;DHT22;27720;51.992;5.890;2023-02-15T20:38:59;9.20;99.90
41557;DHT22;27720;51.992;5.890;2023-02-15T20:41:26;9.20;99.90
41557;DHT22;27720;51.992;5.890;2023-02-15T20:46:42;9.10;99.90
41557;DHT22;27720;51.992;5.890;2023-02-15T20:49:08;9.00;99.90
41557;DHT22;27720;51.992;5.890;2023-02-15T20:51:33;9.10;99.90
41557;DHT22;27720;51.992;5.890;2023-02-15T20:53:59;9.00;99.90
41557;DHT22;27720;51.992;5.890;2023-02-15T20:56:35;9.00;99.90
41557;DHT22;27720;51.992;5.890;2023-02-15T20:59:30;9.00;99.90
41557;DHT22;27720;51.992;5.890;2023-02-15T21:04:36;9.00;99.90
41557;DHT22;27720;51.992;5.890;2023-02-15T21:07:02;9.00;99.90
41557;DHT22;27720;51.992;5.890;2023-02-15T21:09:28;8.90;99.90
41557;DHT22;27720;51.992;5.890;2023-02-15T21:11:56;9.00;99.90
41557;DHT22;27720;51.992;5.890;2023-02-15T21:14:25;9.00;99.90
41557;DHT22;27720;51.992;5.890;2023-02-15T21:16:51;8.90;99.90
41557;DHT22;27720;51.992;5.890;2023-02-15T21:19:20;8.90;99.90
41557;DHT22;27720;51.992;5.890;2023-02-15T21:21:49;8.90;99.90
41557;DHT22;27720;51.992;5.890;2023-02-15T21:24:22;8.90;99.90
41557;DHT22;27720;51.992;5.890;2023-02-15T21:26:49;9.00;99.90
41557;DHT22;27720;51.992;5.890;2023-02-15T21:29:26;8.90;99.90
41557;DHT22;27720;51.992;5.890;2023-02-15T21:31:53;8.90;99.90
41557;DHT22;27720;51.992;5.890;2023-02-15T21:34:19;8.90;99.90
41557;DHT22;27720;51.992;5.890;2023-02-15T21:36:46;8.90;99.90
41557;DHT22;27720;51.992;5.890;2023-02-15T21:39:23;8.90;99.90
41557;DHT22;27720;51.992;5.890;2023-02-15T21:41:52;8.90;99.90
41557;DHT22;27720;51.992;5.890;2023-02-15T21:44:36;8.90;99.90
41557;DHT22;27720;51.992;5.890;2023-02-15T21:47:29;8.80;99.90
41557;DHT22;27720;51.992;5.890;2023-02-15T21:50:19;8.80;99.90
41557;DHT22;27720;51.992;5.890;2023-02-15T21:53:06;8.80;99.90
41557;DHT22;27720;51.992;5.890;2023-02-15T21:55:33;8.80;99.90
41557;DHT22;27720;51.992;5.890;2023-02-15T21:57:59;8.80;99.90
41557;DHT22;27720;51.992;5.890;2023-02-15T22:00:26;8.80;99.90
41557;DHT22;27720;51.992;5.890;2023-02-15T22:02:54;8.80;99.90
41557;DHT22;27720;51.992;5.890;2023-02-15T22:05:26;8.80;99.90
41557;DHT22;27720;51.992;5.890;2023-02-15T22:07:53;8.70;99.90
41557;DHT22;27720;51.992;5.890;2023-02-15T22:10:19;8.70;99.90
41557;DHT22;27720;51.992;5.890;2023-02-15T22:12:44;8.70;99.90
41557;DHT22;27720;51.992;5.890;2023-02-15T22:15:20;8.70;99.90
41557;DHT22;27720;51.992;5.890;2023-02-15T22:17:47;8.60;99.90
41557;DHT22;27720;51.992;5.890;2023-02-15T22:20:16;8.60;99.90
41557;DHT22;27720;51.992;5.890;2023-02-15T22:22:44;8.60;99.90
41557;DHT22;27720;51.992;5.890;2023-02-15T22:25:13;8.50;99.90
41557;DHT22;27720;51.992;5.890;2023-02-15T22:27:39;8.50;99.90
41557;DHT22;27720;51.992;5.890;2023-02-15T22:32:47;8.50;99.90
41557;DHT22;27720;51.992;5.890;2023-02-15T22:35:35;8.40;99.90
41557;DHT22;27720;51.992;5.890;2023-02-15T22:38:01;8.50;99.90
41557;DHT22;27720;51.992;5.890;2023-02-15T22:40:30;8.40;99.90
41557;DHT22;27720;51.992;5.890;2023-02-15T22:43:03;8.30;99.90
41557;DHT22;27720;51.992;5.890;2023-02-15T22:45:31;8.30;99.90
41557;DHT22;27720;51.992;5.890;2023-02-15T22:47:58;8.30;99.90
41557;DHT22;27720;51.992;5.890;2023-02-15T22:50:28;8.30;99.90
41557;DHT22;27720;51.992;5.890;2023-02-15T22:52:54;8.30;99.90
41557;DHT22;27720;51.992;5.890;2023-02-15T22:55:22;8.20;99.90
41557;DHT22;27720;51.992;5.890;2023-02-15T22:57:51;8.20;99.90
41557;DHT22;27720;51.992;5.890;2023-02-15T23:00:25;8.20;99.90
41557;DHT22;27720;51.992;5.890;2023-02-15T23:02:52;8.20;99.90
41557;DHT22;27720;51.992;5.890;2023-02-15T23:05:29;8.10;99.90
41557;DHT22;27720;51.992;5.890;2023-02-15T23:07:55;8.10;99.90
41557;DHT22;27720;51.992;5.890;2023-02-15T23:10:24;8.10;99.90
41557;DHT22;27720;51.992;5.890;2023-02-15T23:12:54;8.10;99.90
41557;DHT22;27720;51.992;5.890;2023-02-15T23:15:39;8.00;99.90
41557;DHT22;27720;51.992;5.890;2023-02-15T23:18:16;8.00;99.90
41557;DHT22;27720;51.992;5.890;2023-02-15T23:20:43;8.00;99.90
41557;DHT22;27720;51.992;5.890;2023-02-15T23:23:11;8.00;99.90
41557;DHT22;27720;51.992;5.890;2023-02-15T23:25:38;8.00;99.90
41557;DHT22;27720;51.992;5.890;2023-02-15T23:28:04;8.00;99.90
41557;DHT22;27720;51.992;5.890;2023-02-15T23:30:30;8.00;99.90
41557;DHT22;27720;51.992;5.890;2023-02-15T23:32:56;8.00;99.90
41557;DHT22;27720;51.992;5.890;2023-02-15T23:35:22;7.90;99.90
41557;DHT22;27720;51.992;5.890;2023-02-15T23:37:48;7.90;99.90
41557;DHT22;27720;51.992;5.890;2023-02-15T23:40:20;7.90;99.90
41557;DHT22;27720;51.992;5.890;2023-02-15T23:43:05;7.90;99.90
41557;DHT22;27720;51.992;5.890;2023-02-15T23:45:37;7.80;99.90
41557;DHT22;27720;51.992;5.890;2023-02-15T23:48:22;7.90;99.90
41557;DHT22;27720;51.992;5.890;2023-02-15T23:50:54;7.90;99.90
41557;DHT22;27720;51.992;5.890;2023-02-15T23:53:20;7.90;99.90
41557;DHT22;27720;51.992;5.890;2023-02-15T23:55:46;7.80;99.90
41557;DHT22;27720;51.992;5.890;2023-02-15T23:58:18;7.80;99.90
